createdAt,value
2018-04-29T00:00:00.145Z,97.00
2018-04-29T00:02:34.280Z,97.00
2018-04-29T00:05:09.190Z,97.70
2018-04-29T00:07:43.107Z,97.80
2018-04-29T00:10:18.974Z,96.70
2018-04-29T00:12:52.675Z,96.70
2018-04-29T00:15:26.887Z,96.50
2018-04-29T00:18:01.391Z,96.80
2018-04-29T00:20:35.505Z,96.90
2018-04-29T00:23:10.016Z,96.70
2018-04-29T00:25:43.643Z,96.70
2018-04-29T00:28:19.164Z,96.80
2018-04-29T00:30:53.600Z,96.90
2018-04-29T00:33:28.342Z,97.30
2018-04-29T00:36:02.115Z,97.30
2018-04-29T00:38:36.799Z,97.20
2018-04-29T00:41:11.560Z,96.80
2018-04-29T00:43:45.707Z,96.90
2018-04-29T00:46:19.662Z,96.90
2018-04-29T00:48:53.292Z,96.80
2018-04-29T00:51:39.996Z,96.80
2018-04-29T00:54:13.809Z,96.80
2018-04-29T00:56:48.976Z,96.80
2018-04-29T00:59:22.534Z,96.80
2018-04-29T01:01:56.439Z,97.00
2018-04-29T01:04:30.988Z,97.50
2018-04-29T01:07:05.166Z,97.40
2018-04-29T01:09:39.614Z,97.40
2018-04-29T01:12:14.910Z,97.40
2018-04-29T01:14:49.872Z,98.00
2018-04-29T01:17:24.297Z,98.00
2018-04-29T01:19:58.682Z,98.60
2018-04-29T01:22:34.154Z,99.30
2018-04-29T01:25:09.104Z,99.10
2018-04-29T01:27:43.716Z,98.90
2018-04-29T01:30:18.761Z,99.10
2018-04-29T01:32:52.637Z,99.20
2018-04-29T01:35:27.159Z,99.20
2018-04-29T01:38:01.504Z,99.60
2018-04-29T01:40:36.360Z,99.60
2018-04-29T01:43:09.918Z,99.70
2018-04-29T01:45:45.150Z,99.70
2018-04-29T01:48:18.847Z,99.70
2018-04-29T01:50:53.380Z,99.80
2018-04-29T01:53:27.094Z,99.80
2018-04-29T01:56:01.590Z,99.80
2018-04-29T01:58:36.119Z,99.90
2018-04-29T02:01:10.333Z,99.90
2018-04-29T02:03:44.667Z,99.90
2018-04-29T02:06:18.584Z,99.90
2018-04-29T02:08:52.374Z,99.90
2018-04-29T02:11:26.694Z,99.80
2018-04-29T02:14:01.171Z,99.80
2018-04-29T02:16:35.120Z,99.80
2018-04-29T02:19:10.043Z,99.70
2018-04-29T02:21:44.863Z,99.80
2018-04-29T02:24:18.472Z,99.90
2018-04-29T02:26:52.182Z,99.70
2018-04-29T02:29:26.086Z,99.90
2018-04-29T02:32:00.197Z,99.90
2018-04-29T02:34:34.400Z,99.90
2018-04-29T02:37:08.101Z,99.90
2018-04-29T02:39:42.937Z,99.90
2018-04-29T02:42:17.860Z,99.90
2018-04-29T02:44:52.288Z,99.90
2018-04-29T02:47:26.080Z,99.90
2018-04-29T02:50:00.703Z,99.90
2018-04-29T02:52:34.225Z,99.90
2018-04-29T02:55:08.413Z,99.90
2018-04-29T02:57:42.933Z,99.90
2018-04-29T03:00:18.303Z,99.90
2018-04-29T03:02:52.108Z,99.90
2018-04-29T03:05:27.208Z,99.90
2018-04-29T03:08:01.543Z,99.90
2018-04-29T03:10:36.690Z,99.90
2018-04-29T03:13:11.391Z,99.90
2018-04-29T03:15:45.811Z,99.90
2018-04-29T03:18:19.535Z,99.90
2018-04-29T03:20:54.075Z,99.90
2018-04-29T03:23:29.132Z,99.90
2018-04-29T03:26:04.232Z,99.90
2018-04-29T03:28:39.468Z,99.90
2018-04-29T03:31:13.364Z,99.90
2018-04-29T03:33:46.988Z,99.90
2018-04-29T03:36:21.380Z,99.90
2018-04-29T03:38:55.407Z,99.90
2018-04-29T03:41:29.714Z,99.90
2018-04-29T03:44:03.737Z,99.90
2018-04-29T03:46:38.647Z,99.90
2018-04-29T03:49:12.643Z,99.90
2018-04-29T03:51:47.059Z,99.90
2018-04-29T03:54:21.689Z,99.90
2018-04-29T03:57:07.308Z,99.90
2018-04-29T03:59:53.908Z,99.90
2018-04-29T04:02:40.224Z,99.90
2018-04-29T04:05:14.811Z,99.90
2018-04-29T04:07:48.994Z,99.90
2018-04-29T04:10:23.642Z,99.90
2018-04-29T04:12:57.355Z,99.90
2018-04-29T04:15:31.167Z,99.90
2018-04-29T04:18:05.658Z,99.90
2018-04-29T04:20:40.703Z,99.90
2018-04-29T04:23:15.216Z,99.90
2018-04-29T04:25:50.666Z,99.90
2018-04-29T04:28:24.759Z,99.90
2018-04-29T04:31:00.279Z,99.90
2018-04-29T04:33:33.931Z,99.90
2018-04-29T04:36:07.798Z,99.90
2018-04-29T04:38:42.441Z,99.90
2018-04-29T04:41:16.761Z,99.90
2018-04-29T04:43:52.126Z,99.90
2018-04-29T04:46:27.032Z,99.90
2018-04-29T04:49:00.940Z,99.90
2018-04-29T04:51:34.656Z,99.90
2018-04-29T04:54:08.464Z,99.90
2018-04-29T04:56:42.479Z,99.90
2018-04-29T04:59:16.901Z,99.90
2018-04-29T05:01:53.788Z,99.90
2018-04-29T05:04:28.375Z,99.90
2018-04-29T05:07:03.135Z,99.90
2018-04-29T05:09:36.708Z,99.90
2018-04-29T05:12:11.021Z,99.90
2018-04-29T05:14:44.854Z,99.90
2018-04-29T05:17:19.831Z,99.90
2018-04-29T05:19:53.558Z,99.90
2018-04-29T05:22:27.470Z,99.90
2018-04-29T05:25:02.111Z,99.90
2018-04-29T05:27:36.840Z,99.90
2018-04-29T05:30:10.952Z,99.90
2018-04-29T05:32:45.492Z,99.90
2018-04-29T05:35:20.185Z,99.90
2018-04-29T05:37:54.081Z,99.90
2018-04-29T05:40:28.519Z,99.90
2018-04-29T05:43:03.339Z,99.90
2018-04-29T05:45:37.347Z,99.90
2018-04-29T05:48:12.088Z,99.90
2018-04-29T05:50:45.662Z,99.90
2018-04-29T05:53:21.309Z,99.90
2018-04-29T05:55:55.186Z,99.90
2018-04-29T05:58:28.826Z,99.90
2018-04-29T06:01:03.625Z,99.90
2018-04-29T06:03:38.577Z,99.90
2018-04-29T06:06:12.662Z,99.90
2018-04-29T06:08:46.305Z,99.90
2018-04-29T06:11:21.135Z,99.90
2018-04-29T06:13:55.146Z,99.90
2018-04-29T06:16:30.496Z,99.90
2018-04-29T06:19:05.063Z,99.90
2018-04-29T06:21:39.126Z,99.90
2018-04-29T06:24:14.446Z,99.90
2018-04-29T06:26:48.983Z,99.90
2018-04-29T06:29:23.794Z,99.90
2018-04-29T06:31:57.585Z,99.90
2018-04-29T06:34:32.513Z,99.90
2018-04-29T06:37:06.354Z,99.90
2018-04-29T06:39:40.051Z,99.90
2018-04-29T06:42:15.803Z,99.90
2018-04-29T06:44:50.425Z,99.90
2018-04-29T06:47:24.222Z,99.90
2018-04-29T06:49:58.946Z,99.90
2018-04-29T06:52:34.333Z,99.90
2018-04-29T06:55:08.787Z,99.90
2018-04-29T06:57:44.272Z,99.90
2018-04-29T07:00:22.204Z,99.90
2018-04-29T07:02:56.583Z,99.90
2018-04-29T07:05:31.597Z,99.90
2018-04-29T07:08:05.728Z,99.90
2018-04-29T07:10:40.782Z,99.90
2018-04-29T07:13:15.759Z,99.90
2018-04-29T07:15:50.374Z,99.90
2018-04-29T07:18:24.841Z,99.90
2018-04-29T07:20:58.985Z,99.90
2018-04-29T07:23:33.364Z,99.90
2018-04-29T07:26:07.051Z,99.90
2018-04-29T07:28:41.584Z,98.60
2018-04-29T07:31:15.587Z,97.70
2018-04-29T07:33:50.626Z,97.20
2018-04-29T07:36:24.376Z,97.10
2018-04-29T07:38:59.577Z,97.10
2018-04-29T07:41:34.499Z,96.40
2018-04-29T07:44:08.077Z,96.40
2018-04-29T07:46:41.992Z,95.80
2018-04-29T07:49:16.606Z,95.60
2018-04-29T07:51:50.644Z,95.50
2018-04-29T07:54:25.455Z,95.60
2018-04-29T07:56:59.772Z,95.60
2018-04-29T07:59:36.225Z,94.30
2018-04-29T08:02:12.609Z,95.50
2018-04-29T08:04:47.630Z,94.00
2018-04-29T08:07:23.304Z,94.60
2018-04-29T08:09:56.780Z,94.60
2018-04-29T08:12:31.163Z,94.70
2018-04-29T08:15:04.707Z,94.20
2018-04-29T08:17:38.519Z,93.50
2018-04-29T08:20:12.703Z,92.70
2018-04-29T08:22:47.223Z,93.00
2018-04-29T08:25:21.524Z,93.00
2018-04-29T08:27:56.166Z,92.30
2018-04-29T08:30:30.874Z,91.40
2018-04-29T08:33:05.727Z,91.30
2018-04-29T08:35:39.855Z,90.20
2018-04-29T08:38:14.548Z,90.40
2018-04-29T08:40:49.329Z,88.60
2018-04-29T08:43:23.254Z,88.60
2018-04-29T08:45:58.036Z,90.10
2018-04-29T08:48:34.311Z,90.20
2018-04-29T08:51:12.829Z,90.00
2018-04-29T08:53:47.141Z,90.00
2018-04-29T08:56:22.995Z,87.20
2018-04-29T08:58:57.718Z,84.60
2018-04-29T09:01:32.400Z,84.60
2018-04-29T09:04:21.670Z,86.70
2018-04-29T09:06:58.367Z,87.00
2018-04-29T09:09:34.159Z,87.60
2018-04-29T09:12:08.764Z,87.50
2018-04-29T09:14:46.560Z,83.50
2018-04-29T09:17:20.957Z,83.50
2018-04-29T09:19:55.691Z,85.80
2018-04-29T09:22:30.086Z,85.80
2018-04-29T09:25:04.012Z,84.70
2018-04-29T09:27:38.134Z,81.80
2018-04-29T09:30:13.133Z,80.20
2018-04-29T09:32:46.863Z,80.10
2018-04-29T09:35:21.171Z,81.00
2018-04-29T09:37:55.719Z,78.20
2018-04-29T09:40:29.901Z,78.10
2018-04-29T09:43:03.725Z,78.30
2018-04-29T09:45:37.714Z,79.50
2018-04-29T09:48:12.576Z,79.20
2018-04-29T09:50:46.185Z,81.00
2018-04-29T09:53:20.876Z,78.20
2018-04-29T09:55:54.812Z,78.10
2018-04-29T09:58:29.423Z,73.70
2018-04-29T10:01:04.115Z,74.00
2018-04-29T10:03:38.743Z,74.30
2018-04-29T10:06:13.876Z,74.40
2018-04-29T10:08:47.510Z,73.20
2018-04-29T10:11:23.659Z,71.90
2018-04-29T10:13:57.470Z,72.20
2018-04-29T10:16:31.562Z,70.70
2018-04-29T10:19:05.371Z,66.20
2018-04-29T10:21:39.389Z,66.50
2018-04-29T10:24:13.192Z,65.00
2018-04-29T10:26:47.697Z,66.80
2018-04-29T10:29:23.052Z,66.70
2018-04-29T10:31:56.964Z,68.40
2018-04-29T11:10:28.110Z,56.30
2018-04-29T11:13:03.570Z,53.50
2018-04-29T11:15:38.004Z,52.80
2018-04-29T11:18:12.274Z,51.70
2018-04-29T11:20:47.240Z,51.70
2018-04-29T11:23:20.810Z,51.70
2018-04-29T11:25:54.424Z,51.70
2018-04-29T11:28:28.523Z,51.90
2018-04-29T11:31:04.436Z,50.40
2018-04-29T11:33:39.430Z,50.40
2018-04-29T11:36:14.814Z,46.90
2018-04-29T11:38:49.399Z,43.40
2018-04-29T12:14:32.165Z,40.40
2018-04-29T12:17:07.339Z,39.50
2018-04-29T12:19:41.688Z,38.80
2018-04-29T12:22:16.694Z,39.00
2018-04-29T12:24:50.723Z,38.90
2018-04-29T12:27:24.837Z,40.40
2018-04-29T12:29:59.286Z,37.10
2018-04-29T12:32:34.268Z,37.00
2018-04-29T12:35:08.930Z,37.70
2018-04-29T12:37:43.701Z,34.40
2018-04-29T12:40:17.857Z,34.30
2018-04-29T12:45:55.089Z,36.60
2018-04-29T12:48:29.372Z,36.40
2018-04-29T12:51:03.043Z,35.40
2018-04-29T12:53:37.695Z,36.00
2018-04-29T12:56:12.499Z,35.30
2018-04-29T12:58:46.563Z,35.30
2018-04-29T13:01:21.346Z,34.10
2018-04-29T13:03:56.062Z,38.90
2018-04-29T13:06:41.288Z,37.80
2018-04-29T13:09:16.950Z,37.80
2018-04-29T13:11:52.184Z,38.80
2018-04-29T13:14:26.758Z,39.40
2018-04-29T13:17:01.598Z,39.80
2018-04-29T13:19:35.614Z,39.70
2018-04-29T13:22:09.211Z,37.50
2018-04-29T13:24:44.886Z,36.00
2018-04-29T13:27:20.375Z,32.30
2018-04-29T13:29:55.540Z,32.30
2018-04-29T13:32:29.253Z,33.40
2018-04-29T13:35:03.503Z,30.50
2018-04-29T13:37:38.176Z,30.00
2018-04-29T13:40:12.836Z,29.90
2018-04-29T13:42:46.597Z,29.90
2018-04-29T13:45:21.897Z,30.30
2018-04-29T13:47:59.940Z,30.00
2018-04-29T13:53:23.323Z,31.40
2018-04-29T13:55:58.156Z,31.60
2018-04-29T13:58:32.455Z,31.60
2018-04-29T14:21:48.830Z,32.00
2018-04-29T14:24:23.900Z,31.90
2018-04-29T14:27:00.573Z,29.70
2018-04-29T14:29:36.243Z,31.20
2018-04-29T14:32:11.634Z,32.30
2018-04-29T14:34:47.539Z,32.70
2018-04-29T14:37:25.574Z,31.10
2018-04-29T14:40:03.424Z,30.60
2018-04-29T14:42:38.745Z,29.70
2018-04-29T14:45:13.626Z,29.60
2018-04-29T14:47:50.420Z,28.20
2018-04-29T14:50:28.324Z,29.40
2018-04-29T14:53:03.983Z,28.70
2018-04-29T14:55:38.785Z,29.20
2018-04-29T14:58:14.538Z,31.60
2018-04-29T15:00:48.105Z,31.60
2018-04-29T15:03:21.695Z,31.70
2018-04-29T15:05:56.495Z,34.40
2018-04-29T15:08:31.348Z,34.20
2018-04-29T15:11:06.255Z,35.70
2018-04-29T15:13:40.958Z,33.80
2018-04-29T15:16:14.897Z,33.80
2018-04-29T15:18:59.901Z,32.50
2018-04-29T15:21:34.440Z,31.60
2018-04-29T15:24:09.098Z,32.20
2018-04-29T15:26:42.929Z,32.20
2018-04-29T15:29:17.686Z,32.10
2018-04-29T15:31:52.920Z,31.80
2018-04-29T15:34:30.182Z,31.70
2018-04-29T15:37:05.140Z,32.40
2018-04-29T15:39:38.903Z,33.60
2018-04-29T15:42:12.839Z,35.10
2018-04-29T15:44:47.361Z,33.60
2018-04-29T15:47:22.359Z,34.30
2018-04-29T15:49:57.245Z,35.70
2018-04-29T15:52:33.453Z,35.60
2018-04-29T15:55:08.259Z,37.20
2018-04-29T15:57:42.936Z,37.40
2018-04-29T16:00:16.651Z,37.30
2018-04-29T16:02:51.247Z,38.40
2018-04-29T16:05:24.986Z,39.20
2018-04-29T16:08:00.478Z,40.00
2018-04-29T16:10:35.647Z,38.70
2018-04-29T16:13:10.151Z,40.00
2018-04-29T16:15:46.226Z,41.80
2018-04-29T16:18:20.448Z,41.80
2018-04-29T16:20:54.791Z,40.90
2018-04-29T16:23:28.774Z,41.60
2018-04-29T16:26:03.085Z,41.70
2018-04-29T16:28:40.577Z,42.90
2018-04-29T16:31:14.673Z,42.90
2018-04-29T16:33:48.906Z,43.00
2018-04-29T16:36:23.600Z,42.60
2018-04-29T16:38:57.351Z,42.40
2018-04-29T16:41:35.145Z,42.50
2018-04-29T16:44:09.407Z,40.80
2018-04-29T16:46:43.039Z,41.70
2018-04-29T16:49:17.748Z,40.30
2018-04-29T16:51:53.203Z,41.40
2018-04-29T16:54:27.189Z,41.50
2018-04-29T16:57:01.010Z,40.20
2018-04-29T16:59:35.539Z,43.40
2018-04-29T17:02:09.962Z,44.00
2018-04-29T17:04:43.978Z,42.40
2018-04-29T17:07:17.874Z,42.90
2018-04-29T17:09:52.050Z,44.20
2018-04-29T17:12:25.981Z,43.70
2018-04-29T17:14:59.787Z,45.50
2018-04-29T17:17:34.820Z,44.80
2018-04-29T17:20:10.475Z,46.30
2018-04-29T17:22:44.695Z,46.20
2018-04-29T17:25:19.931Z,46.10
2018-04-29T17:27:54.133Z,46.10
2018-04-29T17:30:29.115Z,46.60
2018-04-29T17:33:03.105Z,46.60
2018-04-29T17:35:37.176Z,46.40
2018-04-29T17:38:11.340Z,48.60
2018-04-29T17:40:45.102Z,47.50
2018-04-29T17:43:19.534Z,46.70
2018-04-29T17:45:53.809Z,46.60
2018-04-29T17:48:27.579Z,47.80
2018-04-29T17:51:01.771Z,48.10
2018-04-29T17:53:35.579Z,48.20
2018-04-29T17:56:09.701Z,47.80
2018-04-29T17:58:44.675Z,49.00
2018-04-29T18:01:19.293Z,48.90
2018-04-29T18:03:54.684Z,49.50
2018-04-29T18:06:29.416Z,49.40
2018-04-29T18:09:03.506Z,50.60
2018-04-29T18:11:37.102Z,50.60
2018-04-29T18:14:11.838Z,51.80
2018-04-29T18:16:45.807Z,51.70
2018-04-29T18:19:19.351Z,52.10
2018-04-29T18:21:54.206Z,52.90
2018-04-29T18:24:28.607Z,52.50
2018-04-29T18:27:03.535Z,52.90
2018-04-29T18:29:38.144Z,52.90
2018-04-29T18:32:11.866Z,52.90
2018-04-29T18:34:45.643Z,53.80
2018-04-29T18:37:20.432Z,54.60
2018-04-29T18:39:55.111Z,55.50
2018-04-29T18:42:32.359Z,55.50
2018-04-29T18:45:06.286Z,56.00
2018-04-29T18:47:41.675Z,56.20
2018-04-29T18:50:16.552Z,57.20
2018-04-29T18:52:51.347Z,57.10
2018-04-29T18:55:25.011Z,57.50
2018-04-29T18:57:59.436Z,58.20
2018-04-29T19:00:34.433Z,60.70
2018-04-29T19:03:08.552Z,60.60
2018-04-29T19:05:47.622Z,61.90
2018-04-29T19:08:21.498Z,62.60
2018-04-29T19:10:56.137Z,64.20
2018-04-29T19:13:31.857Z,66.10
2018-04-29T19:16:06.302Z,65.30
2018-04-29T19:18:41.418Z,65.10
2018-04-29T19:21:16.114Z,65.60
2018-04-29T19:23:50.678Z,66.60
2018-04-29T19:26:26.288Z,66.50
2018-04-29T19:29:01.358Z,67.10
2018-04-29T19:31:36.778Z,68.90
2018-04-29T19:34:11.795Z,69.50
2018-04-29T19:36:46.240Z,70.60
2018-04-29T19:39:20.859Z,70.60
2018-04-29T19:41:55.908Z,71.10
2018-04-29T19:44:30.673Z,72.20
2018-04-29T19:47:05.274Z,76.10
2018-04-29T19:49:39.489Z,76.10
2018-04-29T19:52:13.080Z,76.50
2018-04-29T19:54:46.865Z,80.30
2018-04-29T19:57:20.897Z,82.50
2018-04-29T19:59:54.703Z,84.90
2018-04-29T20:02:28.403Z,87.00
2018-04-29T20:05:02.924Z,88.00
2018-04-29T20:07:37.919Z,88.00
2018-04-29T20:10:13.896Z,89.10
2018-04-29T20:12:48.507Z,90.00
2018-04-29T20:15:23.050Z,90.50
2018-04-29T20:17:57.781Z,91.20
2018-04-29T20:20:32.600Z,91.30
2018-04-29T20:23:07.116Z,91.10
2018-04-29T20:25:42.153Z,91.40
2018-04-29T20:28:16.121Z,91.30
2018-04-29T20:30:50.703Z,91.90
2018-04-29T20:33:26.136Z,91.90
2018-04-29T20:36:01.252Z,92.20
2018-04-29T20:38:35.283Z,92.30
2018-04-29T20:41:09.348Z,91.80
2018-04-29T20:43:43.640Z,91.80
2018-04-29T20:46:18.219Z,92.20
2018-04-29T20:48:52.394Z,92.30
2018-04-29T20:51:26.939Z,94.10
2018-04-29T20:54:01.928Z,94.30
2018-04-29T20:56:35.580Z,94.30
2018-04-29T20:59:10.452Z,94.10
2018-04-29T21:01:45.054Z,94.20
2018-04-29T21:04:19.980Z,93.50
2018-04-29T21:06:54.889Z,93.40
2018-04-29T21:09:30.049Z,93.00
2018-04-29T21:12:04.442Z,93.10
2018-04-29T21:14:38.353Z,92.80
2018-04-29T21:17:12.883Z,92.80
2018-04-29T21:19:47.621Z,92.90
2018-04-29T21:22:21.761Z,92.90
2018-04-29T21:24:55.434Z,93.30
2018-04-29T21:27:29.623Z,93.40
2018-04-29T21:30:03.583Z,93.60
2018-04-29T21:32:38.690Z,94.10
2018-04-29T21:35:13.392Z,94.30
2018-04-29T21:37:47.941Z,94.70
2018-04-29T21:40:23.123Z,95.70
2018-04-29T21:42:57.676Z,95.50
2018-04-29T21:45:31.500Z,95.50
2018-04-29T21:48:06.935Z,96.50
2018-04-29T21:50:41.787Z,96.80
2018-04-29T21:53:15.453Z,96.80
2018-04-29T21:55:50.239Z,97.00
2018-04-29T21:58:25.138Z,97.00
2018-04-29T22:00:59.857Z,97.50
2018-04-29T22:03:34.782Z,97.50
2018-04-29T22:06:09.315Z,97.70
2018-04-29T22:08:44.331Z,98.10
2018-04-29T22:11:18.410Z,98.20
2018-04-29T22:13:53.483Z,97.90
2018-04-29T22:16:27.475Z,97.90
2018-04-29T22:19:01.490Z,98.20
2018-04-29T22:21:36.074Z,98.20
2018-04-29T22:24:10.756Z,98.20
2018-04-29T22:26:44.557Z,98.20
2018-04-29T22:29:18.569Z,98.50
2018-04-29T22:31:53.943Z,99.10
2018-04-29T22:34:28.226Z,99.70
2018-04-29T22:37:03.153Z,99.90
2018-04-29T22:39:36.840Z,99.90
2018-04-29T22:42:11.783Z,99.90
2018-04-29T22:44:45.458Z,99.90
2018-04-29T22:47:20.475Z,99.90
2018-04-29T22:49:54.755Z,99.90
2018-04-29T22:52:28.519Z,99.90
2018-04-29T22:55:03.372Z,99.90
2018-04-29T22:57:38.285Z,99.90
2018-04-29T23:00:12.190Z,99.90
2018-04-29T23:02:45.956Z,99.90
2018-04-29T23:05:20.002Z,99.90
2018-04-29T23:07:54.751Z,99.90
2018-04-29T23:10:28.451Z,99.90
2018-04-29T23:13:03.587Z,99.90
2018-04-29T23:15:38.303Z,99.90
2018-04-29T23:18:13.447Z,99.90
2018-04-29T23:20:48.048Z,99.90
2018-04-29T23:23:23.037Z,99.90
2018-04-29T23:25:57.504Z,99.90
2018-04-29T23:28:32.225Z,99.90
2018-04-29T23:31:05.907Z,99.90
2018-04-29T23:33:41.766Z,99.90
2018-04-29T23:36:16.164Z,99.90
2018-04-29T23:38:51.334Z,99.90
2018-04-29T23:41:25.224Z,99.90
2018-04-29T23:44:00.033Z,99.90
2018-04-29T23:46:34.992Z,99.90
2018-04-29T23:49:09.824Z,99.90
2018-04-29T23:51:43.558Z,99.90
2018-04-29T23:54:18.075Z,99.90
2018-04-29T23:56:52.188Z,99.90
2018-04-29T23:59:26.703Z,99.90
